Pagrindinis puslapis
METAR-TAF:

METAR-TAF

Oro uostai :

Kajo Largo del Suras, Kuba

platuma: 21-37N, ilguma: 081-33W, Aukštis: 2 m

Dabartinis oras

Ataskaita buvo paskelbta 1 valandą ir 11 minutes, ne 10:05 UTC
Vėjas 3 kt iš Rytų/Pietryčių
Temperatūra 23°C
Drėgmė 94%
Slėgis 1017 hPa

METAR: MUCL 061005Z AUTO 12003KT 23/22 Q1017

Laikas: 06:16 (11:16 UTC)

Prognozė

Ataskaita buvo paskelbta 18 valandos ir 16 minutes, ne 17:00 UTC
Prognozė galioja nuo 05 metu 18 UTC su 06 metu 06 UTC
Vėjas 8 kt iš Rytų
Matomumas: 9000 m
Išsisklaidę debesys ne aukštis 2000 ft

TAF: MUCL 051700Z 0518/0606 09008KT 9000 SCT020

Orai ataskaitas ir orų prognozės (METAR, TAF).

turimą stotys yra geltonos ir raudonos taškus žemėlapyje.

Perkelti pele per norėdami pamatyti stoties vardą.

Tada spustelėkite, norėdami matyti oro stebėjimo ir prognozės.

Norėdami pakeisti žemėlapį: spustelėkite ant žalios mygtukų su juodo kryžiaus žemyn,; žalią mygtuką su brūkšneliu, jei norite nutolinti; arba žalių rodyklių gretimoms žemėlapius.


METAR-TAF: